Time;durP1;ratioP1;P1;durP2;ratioP2;P2;SDS_P1;SDS_P2;PMS_P1;PMS_P2;Temp;Humidity;BMP_temperature;BMP_pressure;BME280_temperature;BME280_humidity;BME280_pressure;Samples;Min_cycle;Max_cycle;Signal;HPM_P1;HPM_P2
2022/11/23 00:00:36;;;;;;;0.00;0.00;;;5.20;99.90;;;;;;5031865;28;20185;-65
2022/11/23 00:03:02;;;;;;;0.00;0.00;;;5.20;99.90;;;;;;5031849;28;20181;-64
2022/11/23 00:05:30;;;;;;;0.00;0.00;;;5.10;99.90;;;;;;5031796;28;20178;-65
2022/11/23 00:07:55;;;;;;;0.10;0.10;;;5.10;99.90;;;;;;5036676;28;20208;-65
2022/11/23 00:10:21;;;;;;;0.00;0.00;;;5.10;99.90;;;;;;5050385;28;20181;-64
2022/11/23 00:12:47;;;;;;;0.00;0.00;;;5.00;99.90;;;;;;5050131;28;20336;-65
2022/11/23 00:15:14;;;;;;;0.17;0.17;;;5.00;99.90;;;;;;5051470;28;20255;-65
2022/11/23 00:17:40;;;;;;;0.00;0.00;;;5.00;99.90;;;;;;5051598;28;20257;-65
2022/11/23 00:20:07;;;;;;;0.00;0.00;;;5.00;99.90;;;;;;5033712;28;20320;-65
2022/11/23 00:22:33;;;;;;;1.38;0.22;;;5.00;99.90;;;;;;5050233;28;20193;-65
2022/11/23 00:24:58;;;;;;;0.45;0.45;;;4.90;99.90;;;;;;5051218;28;20240;-65
2022/11/23 00:27:24;;;;;;;0.10;0.10;;;4.90;99.90;;;;;;5051037;28;20217;-64
2022/11/23 00:29:50;;;;;;;0.43;0.43;;;4.90;99.90;;;;;;5051705;28;20181;-64
2022/11/23 00:32:15;;;;;;;0.13;0.13;;;4.90;99.90;;;;;;5055369;28;20631;-65
2022/11/23 00:34:41;;;;;;;0.00;0.00;;;4.90;99.90;;;;;;5055594;28;20584;-65
2022/11/23 00:37:06;;;;;;;0.10;0.10;;;4.90;99.90;;;;;;5055140;28;20248;-65
2022/11/23 00:39:32;;;;;;;0.38;0.38;;;4.90;99.90;;;;;;5055226;28;20276;-64
2022/11/23 00:41:58;;;;;;;0.00;0.00;;;4.90;99.90;;;;;;5055206;28;20181;-64
2022/11/23 00:44:23;;;;;;;0.93;0.32;;;4.90;99.90;;;;;;5055031;28;20227;-65
2022/11/23 00:46:49;;;;;;;1.35;0.98;;;4.90;99.90;;;;;;5054925;28;20205;-65
2022/11/23 00:49:14;;;;;;;0.00;0.00;;;4.90;99.90;;;;;;5054940;28;20221;-65
2022/11/23 00:51:40;;;;;;;0.00;0.00;;;5.00;99.90;;;;;;5054420;28;20173;-65
2022/11/23 00:54:06;;;;;;;0.00;0.00;;;5.00;99.90;;;;;;5054629;28;20196;-64
2022/11/23 00:56:33;;;;;;;0.00;0.00;;;5.00;99.90;;;;;;5054401;28;20178;-65
2022/11/23 00:59:00;;;;;;;0.00;0.00;;;5.00;99.90;;;;;;5054585;28;20181;-65
2022/11/23 01:01:29;;;;;;;0.00;0.00;;;5.00;99.90;;;;;;5054560;28;20193;-65
2022/11/23 01:03:58;;;;;;;0.00;0.00;;;5.00;99.90;;;;;;5054796;28;20169;-65
2022/11/23 01:06:25;;;;;;;0.00;0.00;;;5.00;99.90;;;;;;5054453;28;20205;-65
2022/11/23 01:08:56;;;;;;;0.00;0.00;;;5.00;99.90;;;;;;5054612;28;20182;-64
2022/11/23 01:11:23;;;;;;;0.00;0.00;;;4.90;99.90;;;;;;5054636;28;20511;-65
2022/11/23 01:13:50;;;;;;;0.00;0.00;;;4.90;99.90;;;;;;5054338;28;20248;-65
2022/11/23 01:16:18;;;;;;;0.00;0.00;;;4.90;99.90;;;;;;5054631;28;20173;-65
2022/11/23 01:18:44;;;;;;;0.10;0.10;;;4.90;99.90;;;;;;5054413;28;20276;-66
2022/11/23 01:21:10;;;;;;;0.00;0.00;;;4.90;99.90;;;;;;5054445;28;20256;-65
2022/11/23 01:23:35;;;;;;;0.00;0.00;;;4.90;99.90;;;;;;5054532;28;20189;-65
2022/11/23 01:26:06;;;;;;;0.00;0.00;;;4.90;99.90;;;;;;5054433;28;20173;-65
2022/11/23 01:28:32;;;;;;;0.93;0.85;;;4.90;99.90;;;;;;5054323;28;20209;-65
2022/11/23 01:31:27;;;;;;;0.00;0.00;;;4.90;99.90;;;;;;5054338;28;20216;-64
2022/11/23 01:33:55;;;;;;;0.00;0.00;;;4.90;99.90;;;;;;5045435;28;20275;-65
2022/11/23 01:36:23;;;;;;;0.00;0.00;;;4.90;99.90;;;;;;5054157;28;20174;-64
2022/11/23 01:38:49;;;;;;;0.00;0.00;;;5.00;99.90;;;;;;5054036;28;20170;-65
2022/11/23 01:41:23;;;;;;;0.00;0.00;;;5.00;99.90;;;;;;5053622;28;20277;-65
2022/11/23 01:43:50;;;;;;;0.00;0.00;;;5.00;99.90;;;;;;5033740;28;20174;-64
2022/11/23 01:46:16;;;;;;;0.00;0.00;;;5.00;99.90;;;;;;5034102;28;20538;-64
2022/11/23 01:48:56;;;;;;;0.00;0.00;;;5.00;99.90;;;;;;5034054;28;20190;-64
2022/11/23 01:51:30;;;;;;;0.00;0.00;;;5.00;99.90;;;;;;5034183;28;20217;-65
2022/11/23 01:54:23;;;;;;;0.03;0.03;;;5.10;99.90;;;;;;5033793;28;20247;-66
2022/11/23 01:56:53;;;;;;;0.00;0.00;;;5.10;99.90;;;;;;5046772;28;20209;-65
2022/11/23 01:59:20;;;;;;;0.00;0.00;;;5.10;99.90;;;;;;5053142;28;20188;-65
2022/11/23 02:01:46;;;;;;;0.10;0.10;;;5.10;99.90;;;;;;5051462;28;20178;-66
2022/11/23 02:04:18;;;;;;;0.00;0.00;;;5.00;99.90;;;;;;5052633;28;20215;-65
2022/11/23 02:06:46;;;;;;;0.00;0.00;;;5.00;99.90;;;;;;5052915;28;20212;-65
2022/11/23 02:09:13;;;;;;;0.00;0.00;;;5.00;99.90;;;;;;5051508;28;20184;-65
2022/11/23 02:11:39;;;;;;;0.00;0.00;;;4.90;99.90;;;;;;5052946;28;20260;-65
2022/11/23 02:14:04;;;;;;;0.00;0.00;;;4.90;99.90;;;;;;5052850;28;20782;-65
2022/11/23 02:16:30;;;;;;;0.00;0.00;;;4.90;99.90;;;;;;5053044;28;20213;-65
2022/11/23 02:18:55;;;;;;;0.00;0.00;;;5.00;99.90;;;;;;5053093;28;20174;-66
2022/11/23 02:21:22;;;;;;;0.00;0.00;;;5.00;99.90;;;;;;5052958;28;20255;-65
2022/11/23 02:24:11;;;;;;;0.00;0.00;;;5.00;99.90;;;;;;5052491;28;20201;-65
2022/11/23 02:26:37;;;;;;;0.00;0.00;;;5.00;99.90;;;;;;5052910;28;20212;-64
2022/11/23 02:29:10;;;;;;;0.00;0.00;;;5.10;99.90;;;;;;5052734;28;20276;-65
2022/11/23 02:31:35;;;;;;;0.03;0.03;;;5.10;99.90;;;;;;5052608;28;20663;-65
2022/11/23 02:34:01;;;;;;;0.00;0.00;;;5.10;99.90;;;;;;5052631;28;20190;-65
2022/11/23 02:36:42;;;;;;;0.00;0.00;;;5.10;99.90;;;;;;5052592;28;20276;-65
2022/11/23 02:39:31;;;;;;;0.00;0.00;;;5.10;99.90;;;;;;5052728;28;20189;-65
2022/11/23 02:41:57;;;;;;;0.00;0.00;;;5.10;99.90;;;;;;5051127;28;20239;-65
2022/11/23 02:44:29;;;;;;;0.00;0.00;;;5.10;99.90;;;;;;5052710;28;20810;-65
2022/11/23 02:46:55;;;;;;;0.00;0.00;;;5.10;99.90;;;;;;5052434;28;20209;-65
2022/11/23 02:49:21;;;;;;;0.10;0.10;;;5.10;99.90;;;;;;5052203;28;20659;-65
2022/11/23 02:51:46;;;;;;;0.00;0.00;;;5.10;99.90;;;;;;5051109;28;20264;-65
2022/11/23 02:54:12;;;;;;;0.00;0.00;;;5.10;99.90;;;;;;5049873;28;20196;-65
2022/11/23 02:56:37;;;;;;;0.00;0.00;;;5.20;99.90;;;;;;5052245;28;20181;-65
2022/11/23 02:59:03;;;;;;;0.00;0.00;;;5.20;99.90;;;;;;5052554;28;20178;-65
2022/11/23 03:01:28;;;;;;;0.00;0.00;;;5.20;99.90;;;;;;5051480;28;20288;-64
2022/11/23 03:03:54;;;;;;;0.00;0.00;;;5.20;99.90;;;;;;5052012;28;20227;-65
2022/11/23 03:06:19;;;;;;;0.00;0.00;;;5.10;99.90;;;;;;5052470;28;20177;-65
2022/11/23 03:08:45;;;;;;;0.00;0.00;;;5.20;99.90;;;;;;5053567;28;20546;-65
2022/11/23 03:11:10;;;;;;;0.03;0.03;;;5.20;99.90;;;;;;5052260;28;20165;-65
2022/11/23 03:13:36;;;;;;;0.00;0.00;;;5.20;99.90;;;;;;5050720;28;20715;-64
2022/11/23 03:16:02;;;;;;;0.00;0.00;;;5.20;99.90;;;;;;5052009;28;20185;-65
2022/11/23 03:18:27;;;;;;;0.00;0.00;;;5.20;99.90;;;;;;5052178;28;20178;-65
2022/11/23 03:20:53;;;;;;;0.00;0.00;;;5.30;99.90;;;;;;5050884;28;20183;-64
2022/11/23 03:23:18;;;;;;;0.00;0.00;;;5.30;99.90;;;;;;5052398;28;20651;-65
2022/11/23 03:25:44;;;;;;;0.00;0.00;;;5.30;99.90;;;;;;5052038;28;20629;-65
2022/11/23 03:28:09;;;;;;;0.38;0.38;;;5.30;99.90;;;;;;5052032;28;20216;-65
2022/11/23 03:30:35;;;;;;;0.00;0.00;;;5.30;99.90;;;;;;5052148;28;20173;-65
2022/11/23 03:33:00;;;;;;;0.00;0.00;;;5.30;99.90;;;;;;5051988;28;20215;-65
2022/11/23 03:35:26;;;;;;;0.00;0.00;;;5.40;99.90;;;;;;5052102;28;20203;-65
2022/11/23 03:37:51;;;;;;;0.00;0.00;;;5.40;99.90;;;;;;5051872;28;20177;-65
2022/11/23 03:40:17;;;;;;;0.00;0.00;;;5.40;99.90;;;;;;5052006;28;20176;-65
2022/11/23 03:42:43;;;;;;;0.00;0.00;;;5.40;99.90;;;;;;5040239;28;20193;-65
2022/11/23 03:45:08;;;;;;;0.00;0.00;;;5.40;99.90;;;;;;5031975;28;20265;-65
2022/11/23 03:47:36;;;;;;;0.00;0.00;;;5.40;99.90;;;;;;5031944;28;20244;-65
2022/11/23 03:50:02;;;;;;;0.05;0.05;;;5.40;99.90;;;;;;5031931;28;20182;-65
2022/11/23 03:52:28;;;;;;;0.08;0.08;;;5.40;99.90;;;;;;5031937;28;20273;-65
2022/11/23 03:54:53;;;;;;;0.00;0.00;;;5.40;99.90;;;;;;5031788;28;20205;-65
2022/11/23 03:57:19;;;;;;;0.00;0.00;;;5.40;99.90;;;;;;5032940;28;20606;-65
2022/11/23 03:59:44;;;;;;;0.00;0.00;;;5.40;99.90;;;;;;5051230;28;20216;-65
2022/11/23 04:02:10;;;;;;;0.00;0.00;;;5.40;99.90;;;;;;5051586;28;20216;-64
2022/11/23 04:04:35;;;;;;;0.00;0.00;;;5.40;99.90;;;;;;5051755;28;20315;-65
2022/11/23 04:07:01;;;;;;;0.43;0.28;;;5.40;99.90;;;;;;5055656;28;20523;-65
2022/11/23 04:09:27;;;;;;;0.00;0.00;;;5.40;99.90;;;;;;5055847;28;20181;-65
2022/11/23 04:11:52;;;;;;;0.00;0.00;;;5.30;99.90;;;;;;5055719;28;20588;-65
2022/11/23 04:14:18;;;;;;;0.00;0.00;;;5.30;99.90;;;;;;5055504;28;20225;-64
2022/11/23 04:16:44;;;;;;;0.00;0.00;;;5.30;99.90;;;;;;5054288;28;20200;-65
2022/11/23 04:19:09;;;;;;;0.00;0.00;;;5.30;99.90;;;;;;5055467;28;20184;-64
2022/11/23 04:21:36;;;;;;;0.00;0.00;;;5.20;99.90;;;;;;5054841;28;20178;-64
2022/11/23 04:24:02;;;;;;;0.00;0.00;;;5.20;99.90;;;;;;5054826;28;20193;-65
2022/11/23 04:26:27;;;;;;;0.00;0.00;;;5.30;99.90;;;;;;5056435;28;20185;-65
2022/11/23 04:28:53;;;;;;;0.00;0.00;;;5.20;99.90;;;;;;5061462;28;20273;-65
2022/11/23 04:31:18;;;;;;;0.03;0.03;;;5.20;99.90;;;;;;5061190;28;20217;-65
2022/11/23 04:33:44;;;;;;;0.00;0.00;;;5.30;99.90;;;;;;5061340;28;20251;-64
2022/11/23 04:36:09;;;;;;;0.00;0.00;;;5.30;99.90;;;;;;5055431;28;20181;-65
2022/11/23 04:38:35;;;;;;;0.10;0.10;;;5.30;99.90;;;;;;5053428;28;20192;-66
2022/11/23 04:41:00;;;;;;;0.00;0.00;;;5.30;99.90;;;;;;5054131;28;20200;-66
2022/11/23 04:43:26;;;;;;;0.05;0.05;;;5.30;99.90;;;;;;5054515;28;20268;-65
2022/11/23 04:45:51;;;;;;;0.00;0.00;;;5.30;99.90;;;;;;5054716;28;20216;-65
2022/11/23 04:48:17;;;;;;;0.00;0.00;;;5.30;99.90;;;;;;5054640;28;20217;-65
2022/11/23 04:50:42;;;;;;;0.00;0.00;;;5.30;99.90;;;;;;5055026;28;20165;-66
2022/11/23 04:53:08;;;;;;;0.00;0.00;;;5.30;99.90;;;;;;5054328;28;20181;-66
2022/11/23 04:55:34;;;;;;;0.00;0.00;;;5.40;99.90;;;;;;5054962;28;20177;-65
2022/11/23 04:57:59;;;;;;;0.00;0.00;;;5.40;99.90;;;;;;5054650;28;20185;-65
2022/11/23 05:00:26;;;;;;;0.00;0.00;;;5.40;99.90;;;;;;5054397;28;20209;-66
2022/11/23 05:02:51;;;;;;;0.10;0.10;;;5.50;99.90;;;;;;5054123;28;20181;-66
2022/11/23 05:05:17;;;;;;;0.00;0.00;;;5.50;99.90;;;;;;5054661;28;20184;-64
2022/11/23 05:07:43;;;;;;;0.03;0.03;;;5.50;99.90;;;;;;5052937;28;20244;-65
2022/11/23 05:10:09;;;;;;;0.00;0.00;;;5.50;99.90;;;;;;5053278;28;20705;-66
2022/11/23 05:12:35;;;;;;;0.00;0.00;;;5.50;99.90;;;;;;5054138;28;20273;-66
2022/11/23 05:15:01;;;;;;;0.00;0.00;;;5.50;99.90;;;;;;5054640;28;20607;-66
2022/11/23 05:17:26;;;;;;;0.00;0.00;;;5.40;99.90;;;;;;5054218;28;20276;-66
2022/11/23 05:19:52;;;;;;;0.00;0.00;;;5.50;99.90;;;;;;5052520;28;20170;-65
2022/11/23 05:22:17;;;;;;;0.15;0.15;;;5.50;99.90;;;;;;5054560;28;20703;-65
2022/11/23 05:24:43;;;;;;;0.00;0.00;;;5.50;99.90;;;;;;5054458;28;20521;-65
2022/11/23 05:27:09;;;;;;;0.00;0.00;;;5.50;99.90;;;;;;5054117;28;20335;-65
2022/11/23 05:29:35;;;;;;;0.00;0.00;;;5.50;99.90;;;;;;5054432;28;20178;-68
2022/11/23 05:32:00;;;;;;;0.00;0.00;;;5.60;99.90;;;;;;5053019;28;20177;-67
2022/11/23 05:34:26;;;;;;;0.00;0.00;;;5.60;99.90;;;;;;5054272;28;20682;-65
2022/11/23 05:36:51;;;;;;;0.20;0.20;;;5.60;99.90;;;;;;5054069;28;20180;-66
2022/11/23 05:39:17;;;;;;;0.00;0.00;;;5.60;99.90;;;;;;5054118;28;20212;-67
2022/11/23 05:41:42;;;;;;;0.20;0.20;;;5.60;99.90;;;;;;5054018;28;20213;-68
2022/11/23 05:44:08;;;;;;;0.00;0.00;;;5.60;99.90;;;;;;5053918;28;20169;-67
2022/11/23 05:46:33;;;;;;;0.00;0.00;;;5.60;99.90;;;;;;5054008;28;20238;-66
2022/11/23 05:48:59;;;;;;;0.00;0.00;;;5.70;99.90;;;;;;5053193;28;20188;-67
2022/11/23 05:51:24;;;;;;;0.00;0.00;;;5.70;99.90;;;;;;5053488;28;20185;-67
2022/11/23 05:53:50;;;;;;;0.00;0.00;;;5.70;99.90;;;;;;5053757;28;20185;-67
2022/11/23 05:56:16;;;;;;;0.03;0.03;;;5.70;99.90;;;;;;5053883;28;20181;-67
2022/11/23 05:58:41;;;;;;;0.00;0.00;;;5.80;99.90;;;;;;5053627;28;20191;-67
2022/11/23 06:01:07;;;;;;;0.00;0.00;;;5.80;99.90;;;;;;5053641;28;20178;-67
2022/11/23 06:03:32;;;;;;;0.00;0.00;;;5.80;99.90;;;;;;5054080;28;20169;-67
2022/11/23 06:05:58;;;;;;;0.00;0.00;;;5.80;99.90;;;;;;5053672;28;20187;-67
2022/11/23 06:08:23;;;;;;;0.10;0.10;;;5.80;99.90;;;;;;5053483;28;20255;-67
2022/11/23 06:10:49;;;;;;;0.00;0.00;;;5.90;99.90;;;;;;5053492;28;20169;-67
2022/11/23 06:13:14;;;;;;;0.15;0.15;;;5.90;99.90;;;;;;5053469;28;20238;-67
2022/11/23 06:15:40;;;;;;;0.00;0.00;;;5.90;99.90;;;;;;5053408;28;20176;-66
2022/11/23 06:18:05;;;;;;;0.00;0.00;;;5.90;99.90;;;;;;5053404;28;20197;-67
2022/11/23 06:20:31;;;;;;;0.00;0.00;;;6.00;99.90;;;;;;5053502;28;20632;-67
2022/11/23 06:22:56;;;;;;;0.47;0.47;;;6.00;99.90;;;;;;5053303;28;20181;-67
2022/11/23 06:25:22;;;;;;;0.00;0.00;;;6.00;99.90;;;;;;5053245;28;20191;-67
2022/11/23 06:27:56;;;;;;;0.00;0.00;;;6.00;99.90;;;;;;5052574;28;20220;-67
2022/11/23 06:30:22;;;;;;;0.05;0.03;;;6.00;99.90;;;;;;5053221;28;20169;-67
2022/11/23 06:32:47;;;;;;;0.00;0.00;;;6.00;99.90;;;;;;5053167;28;20275;-67
2022/11/23 06:35:13;;;;;;;0.10;0.10;;;6.00;99.90;;;;;;5051826;28;20534;-67
2022/11/23 06:37:38;;;;;;;0.20;0.20;;;6.00;99.90;;;;;;5053085;28;20510;-67
2022/11/23 06:40:04;;;;;;;0.00;0.00;;;6.00;99.90;;;;;;5052983;28;20177;-67
2022/11/23 06:42:30;;;;;;;0.00;0.00;;;6.00;99.90;;;;;;5052931;28;20290;-67
2022/11/23 06:44:55;;;;;;;0.00;0.00;;;6.00;99.90;;;;;;5052940;28;20758;-67
2022/11/23 06:47:21;;;;;;;0.00;0.00;;;6.00;99.90;;;;;;5051574;28;20227;-67
2022/11/23 06:49:46;;;;;;;0.00;0.00;;;6.00;99.90;;;;;;5052759;28;20629;-67
2022/11/23 06:52:12;;;;;;;0.00;0.00;;;6.00;99.90;;;;;;5052764;28;20178;-67
2022/11/23 06:54:38;;;;;;;0.00;0.00;;;6.00;99.90;;;;;;5052766;28;20633;-67
2022/11/23 06:57:07;;;;;;;0.20;0.20;;;6.00;99.90;;;;;;5052665;28;20231;-67
2022/11/23 06:59:32;;;;;;;0.00;0.00;;;6.00;99.90;;;;;;5051470;28;20281;-67
2022/11/23 07:01:58;;;;;;;0.00;0.00;;;6.00;99.90;;;;;;5052615;28;20645;-67
2022/11/23 07:04:23;;;;;;;0.00;0.00;;;6.00;99.90;;;;;;5051320;28;20178;-67
2022/11/23 07:06:49;;;;;;;0.05;0.05;;;6.10;99.90;;;;;;5052468;28;20280;-67
2022/11/23 07:09:14;;;;;;;0.00;0.00;;;6.10;99.90;;;;;;5052476;28;20578;-68
2022/11/23 07:11:40;;;;;;;0.20;0.20;;;6.10;99.90;;;;;;5052458;28;20172;-67
2022/11/23 07:14:05;;;;;;;0.00;0.00;;;6.10;99.90;;;;;;5052076;28;20708;-67
2022/11/23 07:16:31;;;;;;;0.00;0.00;;;6.10;99.90;;;;;;5052274;28;20174;-67
2022/11/23 07:18:57;;;;;;;0.10;0.10;;;6.20;99.90;;;;;;5052277;28;20181;-67
2022/11/23 07:21:23;;;;;;;0.00;0.00;;;6.20;99.90;;;;;;5052318;28;20165;-67
2022/11/23 07:23:48;;;;;;;0.13;0.13;;;6.20;99.90;;;;;;5052328;28;20173;-67
2022/11/23 07:26:14;;;;;;;0.00;0.00;;;6.20;99.90;;;;;;5052268;28;20181;-67
2022/11/23 07:28:39;;;;;;;0.10;0.10;;;6.20;99.90;;;;;;5052215;28;20676;-65
2022/11/23 07:31:05;;;;;;;0.00;0.00;;;6.20;99.90;;;;;;5052068;28;20166;-65
2022/11/23 07:33:30;;;;;;;0.10;0.10;;;6.20;99.90;;;;;;5052100;28;20182;-66
2022/11/23 07:36:01;;;;;;;0.13;0.13;;;6.20;99.90;;;;;;5052124;28;20258;-65
2022/11/23 07:38:27;;;;;;;0.00;0.00;;;6.20;99.90;;;;;;5050868;28;20201;-65
2022/11/23 07:40:52;;;;;;;0.15;0.15;;;6.20;99.90;;;;;;5051302;28;20259;-65
2022/11/23 07:43:18;;;;;;;0.00;0.00;;;6.20;99.90;;;;;;5051959;28;20178;-65
2022/11/23 07:45:43;;;;;;;0.05;0.05;;;6.20;99.90;;;;;;5051984;28;20170;-66
2022/11/23 07:48:09;;;;;;;0.00;0.00;;;6.20;99.90;;;;;;5051930;28;20216;-65
2022/11/23 07:50:36;;;;;;;0.00;0.00;;;6.20;99.90;;;;;;5052032;28;20201;-65
2022/11/23 07:53:03;;;;;;;0.00;0.00;;;6.20;99.90;;;;;;5051962;28;20651;-66
2022/11/23 07:55:30;;;;;;;0.00;0.00;;;6.20;99.90;;;;;;5052359;28;20174;-66
2022/11/23 07:57:56;;;;;;;0.00;0.00;;;6.20;99.90;;;;;;5051830;28;20285;-66
2022/11/23 08:00:23;;;;;;;0.00;0.00;;;6.20;99.90;;;;;;5051887;28;20196;-66
2022/11/23 08:02:49;;;;;;;0.00;0.00;;;6.20;99.90;;;;;;5051826;28;20180;-66
2022/11/23 08:05:15;;;;;;;0.00;0.00;;;6.20;99.90;;;;;;5051879;28;20177;-66
2022/11/23 08:07:41;;;;;;;0.00;0.00;;;6.20;99.90;;;;;;5051788;28;20271;-66
2022/11/23 08:10:07;;;;;;;0.28;0.28;;;6.30;99.90;;;;;;5051763;28;20169;-66
2022/11/23 08:12:33;;;;;;;0.00;0.00;;;6.30;99.90;;;;;;5051521;28;20174;-66
2022/11/23 08:14:58;;;;;;;0.00;0.00;;;6.40;99.90;;;;;;5051667;28;20671;-65
2022/11/23 08:17:24;;;;;;;0.00;0.00;;;6.40;99.90;;;;;;5051784;28;20649;-66
2022/11/23 08:19:49;;;;;;;0.00;0.00;;;6.50;99.90;;;;;;5051654;28;20208;-66
2022/11/23 08:22:15;;;;;;;0.00;0.00;;;6.50;99.90;;;;;;5050369;28;20264;-66
2022/11/23 08:24:41;;;;;;;0.00;0.00;;;6.50;99.90;;;;;;5051961;28;20251;-66
2022/11/23 08:27:07;;;;;;;0.00;0.00;;;6.60;99.90;;;;;;5051605;28;20201;-66
2022/11/23 08:29:32;;;;;;;0.00;0.00;;;6.60;99.90;;;;;;5051698;28;20280;-66
2022/11/23 08:31:58;;;;;;;0.00;0.00;;;6.60;99.90;;;;;;5051491;28;20265;-66
2022/11/23 08:34:24;;;;;;;0.10;0.10;;;6.70;99.90;;;;;;5051659;28;20170;-66
2022/11/23 08:36:49;;;;;;;0.00;0.00;;;6.80;99.90;;;;;;5051545;28;20181;-66
2022/11/23 08:39:16;;;;;;;0.00;0.00;;;6.80;99.90;;;;;;5051506;28;20227;-66
2022/11/23 08:41:41;;;;;;;0.00;0.00;;;6.90;99.90;;;;;;5051539;28;20184;-66
2022/11/23 08:44:09;;;;;;;0.00;0.00;;;6.90;99.90;;;;;;5051516;28;20170;-66
2022/11/23 08:46:35;;;;;;;0.00;0.00;;;7.00;99.90;;;;;;5051433;28;20181;-66
2022/11/23 08:49:01;;;;;;;0.00;0.00;;;7.10;99.90;;;;;;5051461;28;20185;-67
2022/11/23 08:51:27;;;;;;;0.10;0.10;;;7.10;99.90;;;;;;5052364;28;20665;-68
2022/11/23 08:53:52;;;;;;;0.00;0.00;;;7.30;99.90;;;;;;5053703;28;20181;-66
2022/11/23 08:56:18;;;;;;;0.03;0.03;;;7.40;99.90;;;;;;5055036;28;20177;-66
2022/11/23 08:58:44;;;;;;;0.10;0.10;;;7.50;99.90;;;;;;5054973;28;20180;-66
2022/11/23 09:01:14;;;;;;;0.00;0.00;;;7.60;99.90;;;;;;5054836;28;20667;-66
2022/11/23 09:03:40;;;;;;;0.00;0.00;;;7.70;99.90;;;;;;5054972;28;20178;-66
2022/11/23 09:06:07;;;;;;;0.00;0.00;;;7.90;99.90;;;;;;5054885;28;20264;-66
2022/11/23 09:08:32;;;;;;;0.00;0.00;;;8.10;99.90;;;;;;5054691;28;20217;-66
2022/11/23 09:10:59;;;;;;;0.00;0.00;;;8.20;99.90;;;;;;5054655;28;20177;-66
2022/11/23 09:13:25;;;;;;;0.00;0.00;;;8.40;99.90;;;;;;5054569;28;20625;-66
2022/11/23 09:15:50;;;;;;;0.08;0.08;;;8.60;99.90;;;;;;5054510;28;20267;-66
2022/11/23 09:18:16;;;;;;;0.20;0.20;;;8.80;99.90;;;;;;5054706;28;20178;-66
2022/11/23 09:20:41;;;;;;;0.17;0.17;;;9.00;99.90;;;;;;5054687;28;20530;-66
2022/11/23 09:23:08;;;;;;;0.00;0.00;;;9.20;99.90;;;;;;5054529;28;20652;-66
2022/11/23 09:25:33;;;;;;;0.10;0.10;;;9.40;99.90;;;;;;5053289;28;20209;-66
2022/11/23 09:27:59;;;;;;;0.00;0.00;;;9.50;99.90;;;;;;5054277;28;20682;-66
2022/11/23 09:30:26;;;;;;;0.00;0.00;;;9.60;99.90;;;;;;5054489;28;20652;-66
2022/11/23 09:32:53;;;;;;;0.00;0.00;;;9.70;99.90;;;;;;5054206;28;20260;-66
2022/11/23 09:35:19;;;;;;;0.00;0.00;;;9.80;99.90;;;;;;5054311;28;20209;-65
2022/11/23 09:37:44;;;;;;;0.00;0.00;;;10.00;99.90;;;;;;5054291;28;20622;-66
2022/11/23 09:40:16;;;;;;;0.00;0.00;;;10.10;99.90;;;;;;5054241;28;20299;-66
2022/11/23 09:42:54;;;;;;;0.00;0.00;;;10.10;99.90;;;;;;5053061;28;20193;-66
2022/11/23 09:45:28;;;;;;;0.00;0.00;;;10.20;99.90;;;;;;5054137;28;20170;-66
2022/11/23 09:48:24;;;;;;;0.00;0.00;;;10.20;99.90;;;;;;5053995;28;20255;-66
2022/11/23 09:51:04;;;;;;;0.00;0.00;;;10.30;99.90;;;;;;5054015;28;20193;-66
2022/11/23 09:53:39;;;;;;;0.00;0.00;;;10.40;99.90;;;;;;5054076;28;20173;-66
2022/11/23 09:56:19;;;;;;;0.00;0.00;;;10.50;99.90;;;;;;5053976;28;20274;-66
2022/11/23 09:58:44;;;;;;;0.00;0.00;;;10.70;99.90;;;;;;5052673;28;20177;-66
2022/11/23 10:01:13;;;;;;;0.43;0.43;;;10.80;99.90;;;;;;5053914;28;20177;-66
2022/11/23 10:03:41;;;;;;;0.00;0.00;;;10.80;99.90;;;;;;5052817;28;20252;-66
2022/11/23 10:06:26;;;;;;;0.13;0.13;;;10.90;99.90;;;;;;5053708;28;20181;-66
2022/11/23 10:09:16;;;;;;;0.00;0.00;;;11.00;99.90;;;;;;5053492;28;20675;-66
2022/11/23 10:12:11;;;;;;;0.00;0.00;;;11.50;99.90;;;;;;5053679;28;20192;-66
2022/11/23 10:14:56;;;;;;;0.00;0.00;;;12.10;99.90;;;;;;5052164;28;20670;-66
2022/11/23 10:17:40;;;;;;;0.00;0.00;;;12.30;99.60;;;;;;5053544;28;20637;-66
2022/11/23 10:20:24;;;;;;;0.00;0.00;;;12.20;99.50;;;;;;5053588;28;20239;-66
2022/11/23 10:22:57;;;;;;;0.05;0.00;;;12.10;98.80;;;;;;5053372;28;20176;-65
2022/11/23 10:25:24;;;;;;;0.00;0.00;;;11.90;98.70;;;;;;5053475;28;20174;-65
2022/11/23 10:27:55;;;;;;;0.00;0.00;;;11.80;99.20;;;;;;5053284;28;20696;-66
2022/11/23 10:30:21;;;;;;;0.00;0.00;;;11.70;98.70;;;;;;5053415;28;20184;-66
2022/11/23 10:32:51;;;;;;;0.00;0.00;;;11.50;98.20;;;;;;5053180;28;20174;-66
2022/11/23 10:35:32;;;;;;;0.00;0.00;;;11.50;98.60;;;;;;5053314;28;20242;-66
2022/11/23 10:38:10;;;;;;;0.00;0.00;;;11.40;98.60;;;;;;5053133;28;20169;-66
2022/11/23 10:40:39;;;;;;;0.00;0.00;;;11.40;99.10;;;;;;5053139;28;20653;-66
2022/11/23 10:43:20;;;;;;;0.00;0.00;;;11.40;99.20;;;;;;5053064;28;20224;-66
2022/11/23 10:45:45;;;;;;;0.00;0.00;;;11.50;99.30;;;;;;5053069;28;20515;-66
2022/11/23 10:48:11;;;;;;;0.00;0.00;;;11.50;98.50;;;;;;5052770;28;20215;-66
2022/11/23 10:50:39;;;;;;;0.00;0.00;;;11.60;98.50;;;;;;5053015;28;20173;-66
2022/11/23 10:53:05;;;;;;;0.00;0.00;;;11.50;98.50;;;;;;5052883;28;20219;-66
2022/11/23 10:55:47;;;;;;;0.00;0.00;;;11.50;99.40;;;;;;5052785;28;20177;-66
2022/11/23 10:58:52;;;;;;;0.00;0.00;;;11.50;98.50;;;;;;5052706;28;20227;-66
2022/11/23 11:01:24;;;;;;;0.00;0.00;;;11.60;99.20;;;;;;5030611;28;20236;-66
2022/11/23 11:03:51;;;;;;;0.00;0.00;;;11.70;99.00;;;;;;5030515;28;20174;-67
2022/11/23 11:06:22;;;;;;;0.00;0.00;;;11.80;98.70;;;;;;5041915;28;20189;-66
2022/11/23 11:08:57;;;;;;;0.00;0.00;;;11.90;98.00;;;;;;5052550;28;20209;-67
2022/11/23 11:11:33;;;;;;;0.00;0.00;;;11.90;97.60;;;;;;5052568;28;20652;-66
2022/11/23 11:14:15;;;;;;;0.00;0.00;;;12.00;96.80;;;;;;5052082;28;20225;-66
2022/11/23 11:16:54;;;;;;;0.08;0.08;;;12.00;96.10;;;;;;5052266;28;20176;-66
2022/11/23 11:19:26;;;;;;;0.00;0.00;;;12.00;96.10;;;;;;5052524;28;20270;-66
2022/11/23 11:21:51;;;;;;;0.00;0.00;;;12.00;96.40;;;;;;5052250;28;20186;-66
2022/11/23 11:24:20;;;;;;;0.00;0.00;;;12.00;96.30;;;;;;5052375;28;20177;-66
2022/11/23 11:26:49;;;;;;;0.00;0.00;;;12.10;96.00;;;;;;5052118;28;20201;-67
2022/11/23 11:29:39;;;;;;;0.05;0.05;;;12.00;95.80;;;;;;5052247;28;20173;-66
2022/11/23 11:32:31;;;;;;;0.00;0.00;;;12.00;95.40;;;;;;5050941;28;20178;-67
2022/11/23 11:35:10;;;;;;;0.00;0.00;;;12.00;95.80;;;;;;5049591;28;20204;-67
2022/11/23 11:37:40;;;;;;;0.15;0.15;;;12.00;96.30;;;;;;5051002;28;20385;-67
2022/11/23 11:40:25;;;;;;;0.00;0.00;;;12.10;95.70;;;;;;5052423;28;20656;-67
2022/11/23 11:42:56;;;;;;;0.32;0.32;;;12.10;95.00;;;;;;5052075;28;20186;-67
2022/11/23 11:45:32;;;;;;;0.00;0.00;;;12.00;93.90;;;;;;5052027;28;20201;-66
2022/11/23 11:48:36;;;;;;;0.00;0.00;;;12.10;94.30;;;;;;5052017;28;20205;-67
2022/11/23 11:51:16;;;;;;;0.00;0.00;;;12.00;93.50;;;;;;5039818;28;20197;-66
2022/11/23 11:53:58;;;;;;;0.00;0.00;;;12.00;92.80;;;;;;5052090;28;20238;-66
2022/11/23 11:56:41;;;;;;;0.00;0.00;;;12.00;92.30;;;;;;5052071;28;20256;-67
2022/11/23 11:59:31;;;;;;;0.00;0.00;;;12.10;92.90;;;;;;5051927;28;20169;-67
2022/11/23 12:02:43;;;;;;;0.00;0.00;;;12.10;92.70;;;;;;5051959;28;20257;-67
2022/11/23 12:05:25;;;;;;;0.00;0.00;;;12.10;91.30;;;;;;5042419;28;20276;-67
2022/11/23 12:08:00;;;;;;;0.00;0.00;;;12.00;90.90;;;;;;5051743;28;20217;-67
2022/11/23 12:10:42;;;;;;;0.00;0.00;;;11.90;90.10;;;;;;5051920;28;20173;-67
2022/11/23 12:13:16;;;;;;;0.00;0.00;;;11.80;90.40;;;;;;5051723;28;20224;-67
2022/11/23 12:15:46;;;;;;;0.00;0.00;;;11.80;90.80;;;;;;5051778;28;20189;-67
2022/11/23 12:18:47;;;;;;;0.00;0.00;;;11.80;90.60;;;;;;5051827;28;20173;-67
2022/11/23 12:21:25;;;;;;;0.00;0.00;;;11.90;90.80;;;;;;5051776;28;20213;-67
2022/11/23 12:24:11;;;;;;;0.00;0.00;;;11.90;91.10;;;;;;5051803;28;20256;-67
2022/11/23 12:26:56;;;;;;;0.00;0.00;;;11.90;91.20;;;;;;5053207;28;20628;-67
2022/11/23 12:29:38;;;;;;;0.00;0.00;;;11.90;90.30;;;;;;5055624;28;20564;-67
2022/11/23 12:32:23;;;;;;;0.00;0.00;;;11.90;91.10;;;;;;5055510;28;20181;-67
2022/11/23 12:35:21;;;;;;;0.00;0.00;;;11.90;90.30;;;;;;5054279;28;20532;-67
2022/11/23 12:38:17;;;;;;;0.00;0.00;;;11.60;89.30;;;;;;5050983;28;20190;-67
2022/11/23 12:40:53;;;;;;;0.32;0.15;;;11.60;90.40;;;;;;5055388;28;20189;-67
2022/11/23 12:43:27;;;;;;;0.00;0.00;;;11.60;91.10;;;;;;5055304;28;20301;-66
2022/11/23 12:46:22;;;;;;;0.00;0.00;;;11.50;90.60;;;;;;5055154;28;20263;-68
2022/11/23 12:49:25;;;;;;;0.00;0.00;;;11.50;90.40;;;;;;5054861;28;20225;-67
2022/11/23 12:52:32;;;;;;;0.00;0.00;;;11.50;91.20;;;;;;5055392;28;20184;-67
2022/11/23 12:55:34;;;;;;;0.00;0.00;;;11.50;90.40;;;;;;5052227;28;20644;-68
2022/11/23 12:58:22;;;;;;;0.00;0.00;;;11.40;89.90;;;;;;5055033;28;20222;-68
2022/11/23 13:00:53;;;;;;;0.00;0.00;;;11.30;89.90;;;;;;5055016;28;20219;-68
2022/11/23 13:03:40;;;;;;;0.00;0.00;;;11.20;90.30;;;;;;5053857;28;20185;-67
2022/11/23 13:06:32;;;;;;;0.00;0.00;;;11.30;91.00;;;;;;5054932;28;20203;-67
2022/11/23 13:09:24;;;;;;;0.00;0.00;;;11.20;90.50;;;;;;5054810;28;20192;-67